Time;durP1;ratioP1;P1;durP2;ratioP2;P2;SDS_P1;SDS_P2;PMS_P1;PMS_P2;Temp;Humidity;BMP_temperature;BMP_pressure;BME280_temperature;BME280_humidity;BME280_pressure;Samples;Min_cycle;Max_cycle;Signal;HPM_P1;HPM_P2
2023/12/26 00:01:24;;;;;;;14.23;4.50;;;6.60;99.90;;;;;;5161160;27;20191;-65
2023/12/26 00:03:52;;;;;;;15.33;4.23;;;6.60;99.90;;;;;;5171298;27;20674;-65
2023/12/26 00:06:22;;;;;;;16.77;4.20;;;6.70;99.90;;;;;;5172707;27;20192;-65
2023/12/26 00:08:50;;;;;;;18.50;4.73;;;6.70;99.90;;;;;;5172299;27;20214;-65
2023/12/26 00:11:20;;;;;;;17.20;4.27;;;6.80;99.90;;;;;;5172267;27;20556;-65
2023/12/26 00:13:49;;;;;;;11.90;4.00;;;6.80;99.90;;;;;;5172181;27;20182;-64
2023/12/26 00:16:18;;;;;;;16.67;4.63;;;6.70;99.90;;;;;;5163905;27;20340;-65
2023/12/26 00:18:46;;;;;;;18.47;5.57;;;6.70;99.90;;;;;;5171875;27;20193;-64
2023/12/26 00:21:15;;;;;;;18.10;4.47;;;6.70;99.90;;;;;;5172138;27;20195;-65
2023/12/26 00:23:44;;;;;;;16.33;4.60;;;6.70;99.90;;;;;;5172054;27;20226;-64
2023/12/26 00:26:12;;;;;;;18.57;4.33;;;6.60;99.90;;;;;;5172092;27;20259;-63
2023/12/26 00:28:42;;;;;;;15.77;4.93;;;6.60;99.90;;;;;;5153272;27;20665;-64
2023/12/26 00:31:11;;;;;;;20.33;4.37;;;6.60;99.90;;;;;;5172059;27;20270;-64
2023/12/26 00:33:40;;;;;;;11.37;3.73;;;6.70;99.90;;;;;;5153183;27;20267;-64
2023/12/26 00:36:14;;;;;;;20.13;4.67;;;6.70;99.90;;;;;;5171695;27;20741;-63
2023/12/26 00:38:42;;;;;;;18.73;4.43;;;6.70;99.90;;;;;;5154153;27;20673;-64
2023/12/26 00:41:11;;;;;;;14.50;5.40;;;6.70;99.90;;;;;;5130845;28;20560;-63
2023/12/26 00:43:40;;;;;;;13.17;4.13;;;6.70;99.90;;;;;;5130399;28;20192;-64
2023/12/26 00:46:10;;;;;;;16.87;4.70;;;6.70;99.90;;;;;;5130270;28;21270;-64
2023/12/26 00:48:40;;;;;;;18.60;4.47;;;6.70;99.90;;;;;;5130311;28;20225;-62
2023/12/26 00:51:09;;;;;;;24.07;4.90;;;6.70;99.90;;;;;;5111819;28;20227;-64
2023/12/26 00:53:38;;;;;;;15.70;4.37;;;6.70;99.90;;;;;;5130446;28;20277;-64
2023/12/26 00:56:07;;;;;;;21.03;5.20;;;6.70;99.90;;;;;;5110662;28;20233;-64
2023/12/26 00:58:36;;;;;;;19.47;4.80;;;6.50;99.90;;;;;;5130314;28;20188;-64
2023/12/26 01:01:05;;;;;;;16.63;4.23;;;6.50;99.90;;;;;;5111701;28;20245;-64
2023/12/26 01:03:35;;;;;;;21.43;5.40;;;6.60;99.90;;;;;;5130042;28;20289;-63
2023/12/26 01:06:04;;;;;;;14.77;4.27;;;6.60;99.90;;;;;;5111824;28;20573;-63
2023/12/26 01:08:33;;;;;;;20.50;4.53;;;6.50;99.90;;;;;;5129927;28;20192;-63
2023/12/26 01:11:02;;;;;;;12.30;4.67;;;6.50;99.90;;;;;;5130013;28;20195;-62
2023/12/26 01:13:34;;;;;;;18.43;4.23;;;6.50;99.90;;;;;;5129932;28;20192;-64
2023/12/26 01:16:03;;;;;;;20.03;5.20;;;6.60;99.90;;;;;;5108006;28;20685;-62
2023/12/26 01:18:32;;;;;;;14.57;4.40;;;6.60;99.90;;;;;;5131644;27;20192;-63
2023/12/26 01:21:03;;;;;;;14.73;4.77;;;6.60;99.90;;;;;;5115404;27;20196;-65
2023/12/26 01:23:32;;;;;;;16.90;4.87;;;6.60;99.90;;;;;;5133788;27;20206;-64
2023/12/26 01:26:00;;;;;;;20.40;5.00;;;6.60;99.90;;;;;;5133725;27;20196;-64
2023/12/26 01:28:29;;;;;;;15.83;4.20;;;6.60;99.90;;;;;;5132225;27;20204;-63
2023/12/26 01:30:57;;;;;;;20.67;4.63;;;6.60;99.90;;;;;;5114959;27;20205;-63
2023/12/26 01:33:26;;;;;;;25.80;5.27;;;6.70;99.90;;;;;;5131829;27;20211;-63
2023/12/26 01:35:54;;;;;;;15.23;4.97;;;6.70;99.90;;;;;;5114758;27;20716;-63
2023/12/26 01:38:25;;;;;;;19.00;4.70;;;6.60;99.90;;;;;;5133362;27;20303;-64
2023/12/26 01:40:53;;;;;;;13.47;5.30;;;6.70;99.90;;;;;;5133209;27;20639;-64
2023/12/26 01:43:22;;;;;;;17.40;4.57;;;6.60;99.90;;;;;;5135310;27;20828;-64
2023/12/26 01:45:57;;;;;;;13.50;3.97;;;6.60;99.90;;;;;;5141093;27;20277;-63
2023/12/26 01:48:28;;;;;;;9.50;4.23;;;6.70;99.90;;;;;;5119935;27;20213;-65
2023/12/26 01:50:57;;;;;;;18.00;4.30;;;6.70;99.90;;;;;;5146553;27;20236;-65
2023/12/26 01:53:29;;;;;;;13.13;4.30;;;6.70;99.90;;;;;;5114339;27;20203;-64
2023/12/26 01:55:58;;;;;;;15.27;6.10;;;6.60;99.90;;;;;;5133022;27;20218;-64
2023/12/26 01:58:27;;;;;;;12.80;4.10;;;6.70;99.90;;;;;;5114267;27;20246;-63
2023/12/26 02:00:55;;;;;;;15.43;4.87;;;6.60;99.90;;;;;;5114671;27;20208;-64
2023/12/26 02:03:24;;;;;;;11.73;4.70;;;6.60;99.90;;;;;;5132698;27;20185;-64
2023/12/26 02:05:53;;;;;;;14.73;4.30;;;6.50;99.90;;;;;;5127311;27;20237;-63
2023/12/26 02:08:22;;;;;;;16.87;4.13;;;6.60;99.90;;;;;;5153539;27;20188;-64
2023/12/26 02:10:52;;;;;;;13.90;3.83;;;6.60;99.90;;;;;;5134785;27;20219;-64
2023/12/26 02:13:22;;;;;;;17.70;4.50;;;6.50;99.90;;;;;;5153355;27;20270;-64
2023/12/26 02:15:53;;;;;;;13.23;4.17;;;6.50;99.90;;;;;;5130102;27;20255;-65
2023/12/26 02:18:22;;;;;;;11.97;3.90;;;6.50;99.90;;;;;;5150023;27;20240;-64
2023/12/26 02:20:50;;;;;;;16.40;5.10;;;6.50;99.90;;;;;;5153401;27;20525;-65
2023/12/26 02:23:19;;;;;;;15.83;4.40;;;6.50;99.90;;;;;;5134815;27;20219;-65
2023/12/26 02:25:50;;;;;;;16.37;4.57;;;6.60;99.90;;;;;;5134527;27;20308;-65
2023/12/26 02:28:19;;;;;;;16.90;4.00;;;6.60;99.90;;;;;;5152948;27;20183;-65
2023/12/26 02:30:51;;;;;;;17.67;4.30;;;6.70;99.90;;;;;;5153301;27;20735;-65
2023/12/26 02:33:20;;;;;;;13.20;4.17;;;6.60;99.90;;;;;;5134912;27;20247;-65
2023/12/26 02:35:49;;;;;;;14.67;4.23;;;6.70;99.90;;;;;;5131235;27;20220;-65
2023/12/26 02:38:18;;;;;;;15.03;4.67;;;6.80;99.90;;;;;;5149384;27;20680;-64
2023/12/26 02:40:51;;;;;;;13.70;4.20;;;6.80;99.90;;;;;;5153482;27;20200;-65
2023/12/26 02:43:22;;;;;;;11.57;4.83;;;6.90;99.90;;;;;;5153183;27;20231;-65
2023/12/26 02:45:51;;;;;;;13.73;3.97;;;6.80;99.90;;;;;;5148746;27;20279;-65
2023/12/26 02:48:19;;;;;;;19.93;4.90;;;6.80;99.90;;;;;;5134474;27;20206;-65
2023/12/26 02:50:49;;;;;;;19.80;4.10;;;6.70;99.90;;;;;;5152821;27;20184;-65
2023/12/26 02:53:17;;;;;;;18.63;4.57;;;6.70;99.90;;;;;;5152940;27;20197;-65
2023/12/26 02:55:46;;;;;;;12.53;3.77;;;6.70;99.90;;;;;;5152794;27;20220;-65
2023/12/26 02:58:14;;;;;;;15.40;4.17;;;6.80;99.90;;;;;;5152763;27;20280;-65
2023/12/26 03:00:44;;;;;;;14.37;4.77;;;6.80;99.90;;;;;;5152775;27;20194;-64
2023/12/26 03:03:13;;;;;;;13.83;4.33;;;6.80;99.90;;;;;;5152700;27;20273;-65
2023/12/26 03:05:42;;;;;;;14.67;4.07;;;6.80;99.90;;;;;;5133683;27;20311;-65
2023/12/26 03:08:11;;;;;;;10.77;4.20;;;7.00;99.90;;;;;;5152487;27;20233;-65
2023/12/26 03:10:40;;;;;;;13.60;3.97;;;6.90;99.90;;;;;;5151901;27;20558;-65
2023/12/26 03:13:08;;;;;;;12.53;4.53;;;6.90;99.90;;;;;;5152216;27;20276;-65
2023/12/26 03:15:37;;;;;;;16.10;4.33;;;6.90;99.90;;;;;;5149694;27;20219;-65
2023/12/26 03:18:07;;;;;;;9.93;4.43;;;6.80;99.90;;;;;;5146740;27;20286;-65
2023/12/26 03:20:36;;;;;;;16.70;4.00;;;6.90;99.90;;;;;;5132467;27;20214;-65
2023/12/26 03:23:05;;;;;;;15.60;4.37;;;6.90;99.90;;;;;;5133516;27;20585;-64
2023/12/26 03:25:34;;;;;;;18.83;4.43;;;6.80;99.90;;;;;;5133163;27;20212;-65
2023/12/26 03:28:03;;;;;;;13.37;4.23;;;6.80;99.90;;;;;;5152275;27;20282;-63
2023/12/26 03:30:32;;;;;;;16.97;4.90;;;6.80;99.90;;;;;;5151986;27;20274;-63
2023/12/26 03:33:01;;;;;;;16.37;4.13;;;6.80;99.90;;;;;;5151943;27;20191;-64
2023/12/26 03:35:31;;;;;;;16.33;3.67;;;6.80;99.90;;;;;;5151699;27;20198;-63
2023/12/26 03:38:00;;;;;;;18.50;4.07;;;6.80;99.90;;;;;;5151597;27;20271;-64
2023/12/26 03:40:27;;;;;;;13.73;3.77;;;6.80;99.90;;;;;;5151632;27;20283;-64
2023/12/26 03:42:56;;;;;;;13.47;4.60;;;6.90;99.90;;;;;;5151703;27;20200;-65
2023/12/26 03:45:26;;;;;;;17.10;5.67;;;6.90;99.90;;;;;;5149641;27;20197;-65
2023/12/26 03:47:55;;;;;;;11.90;4.47;;;7.00;99.90;;;;;;5132845;27;20314;-63
2023/12/26 03:50:24;;;;;;;17.53;4.13;;;6.90;99.90;;;;;;5151467;27;20221;-64
2023/12/26 03:52:55;;;;;;;13.73;4.23;;;7.00;99.90;;;;;;5133052;27;20269;-65
2023/12/26 03:55:23;;;;;;;11.13;3.83;;;7.00;99.90;;;;;;5132753;27;20200;-64
2023/12/26 03:57:52;;;;;;;15.83;4.93;;;7.00;99.90;;;;;;5132730;27;20585;-64
2023/12/26 04:00:21;;;;;;;19.83;4.43;;;7.00;99.90;;;;;;5151387;27;20200;-64
2023/12/26 04:02:50;;;;;;;14.20;3.93;;;6.90;99.90;;;;;;5132820;27;20199;-64
2023/12/26 04:05:18;;;;;;;15.53;3.80;;;6.90;99.90;;;;;;5132310;27;20199;-63
2023/12/26 04:07:47;;;;;;;12.93;3.40;;;6.90;99.90;;;;;;5151303;27;20194;-64
2023/12/26 04:10:17;;;;;;;12.40;3.67;;;6.80;99.90;;;;;;5132612;27;20282;-64
2023/12/26 04:12:46;;;;;;;17.40;4.07;;;6.90;99.90;;;;;;5132948;27;20566;-64
2023/12/26 04:15:15;;;;;;;11.07;4.20;;;6.90;99.90;;;;;;5132656;27;20212;-65
2023/12/26 04:17:44;;;;;;;19.47;4.10;;;7.00;99.90;;;;;;5132276;27;20255;-64
2023/12/26 04:20:13;;;;;;;14.00;3.70;;;7.10;99.90;;;;;;5132321;27;20285;-64
2023/12/26 04:22:41;;;;;;;18.43;5.43;;;7.10;99.90;;;;;;5132353;27;20206;-64
2023/12/26 04:25:10;;;;;;;18.80;4.00;;;7.00;99.90;;;;;;5132213;27;20203;-64
2023/12/26 04:27:40;;;;;;;14.30;3.47;;;6.90;99.90;;;;;;5132360;27;20285;-65
2023/12/26 04:30:09;;;;;;;15.13;4.60;;;7.00;99.90;;;;;;5132461;27;20653;-65
2023/12/26 04:32:38;;;;;;;14.63;3.80;;;6.90;99.90;;;;;;5150981;27;20199;-64
2023/12/26 04:35:07;;;;;;;14.63;3.93;;;6.90;99.90;;;;;;5132411;27;20226;-64
2023/12/26 04:37:36;;;;;;;17.30;4.33;;;7.00;99.90;;;;;;5151247;27;20701;-64
2023/12/26 04:40:05;;;;;;;16.43;5.37;;;7.00;99.90;;;;;;5132089;27;20751;-64
2023/12/26 04:42:34;;;;;;;15.90;3.87;;;6.90;99.90;;;;;;5132532;27;20272;-64
2023/12/26 04:45:05;;;;;;;17.40;4.03;;;6.80;99.90;;;;;;5151140;27;20274;-64
2023/12/26 04:47:33;;;;;;;19.90;3.97;;;6.80;99.90;;;;;;5150915;27;20744;-63
2023/12/26 04:50:02;;;;;;;15.17;3.47;;;6.90;99.90;;;;;;5152186;27;20281;-63
2023/12/26 04:52:30;;;;;;;14.40;4.07;;;6.70;99.90;;;;;;5135812;27;20577;-63
2023/12/26 04:54:59;;;;;;;13.97;4.07;;;6.80;99.90;;;;;;5154992;27;20263;-64
2023/12/26 04:57:28;;;;;;;14.87;3.53;;;7.00;99.90;;;;;;5136159;27;20232;-64
2023/12/26 04:59:57;;;;;;;15.40;3.57;;;7.00;99.90;;;;;;5155039;27;20195;-63
2023/12/26 05:02:28;;;;;;;13.10;3.60;;;7.00;99.90;;;;;;5136150;27;20203;-63
2023/12/26 05:04:57;;;;;;;14.30;3.57;;;6.80;99.90;;;;;;5135929;27;20219;-64
2023/12/26 05:07:25;;;;;;;14.67;4.77;;;6.70;99.90;;;;;;5152417;27;20203;-64
2023/12/26 05:09:54;;;;;;;12.70;3.50;;;6.50;99.90;;;;;;5156962;27;20665;-65
2023/12/26 05:12:22;;;;;;;10.93;3.47;;;6.70;99.90;;;;;;5134107;27;20218;-64
2023/12/26 05:14:51;;;;;;;16.77;4.67;;;6.70;99.90;;;;;;5153968;27;20243;-64
2023/12/26 05:17:20;;;;;;;11.83;4.03;;;6.50;99.90;;;;;;5134943;27;20221;-64
2023/12/26 05:19:50;;;;;;;13.60;4.57;;;6.30;99.90;;;;;;5122640;27;20727;-64
2023/12/26 05:22:18;;;;;;;17.47;4.23;;;6.20;99.90;;;;;;5133026;27;20192;-64
2023/12/26 05:24:47;;;;;;;16.47;3.40;;;6.20;99.90;;;;;;5114640;27;20460;-64
2023/12/26 05:27:18;;;;;;;18.10;4.03;;;6.30;99.90;;;;;;5114449;27;20196;-63
2023/12/26 05:29:47;;;;;;;14.00;3.80;;;6.20;99.90;;;;;;5114350;27;20988;-62
2023/12/26 05:32:16;;;;;;;12.63;4.03;;;6.10;99.90;;;;;;5114119;27;20227;-62
2023/12/26 05:34:45;;;;;;;14.20;3.67;;;5.80;99.90;;;;;;5114523;27;20206;-62
2023/12/26 05:37:15;;;;;;;7.50;3.33;;;5.80;99.90;;;;;;5159153;27;20222;-62
2023/12/26 05:39:44;;;;;;;12.77;3.97;;;5.80;99.90;;;;;;5156041;27;20208;-62
2023/12/26 05:42:13;;;;;;;10.70;3.23;;;5.60;99.90;;;;;;5175000;27;20193;-62
2023/12/26 05:44:42;;;;;;;12.40;3.70;;;5.90;99.90;;;;;;5156015;27;20194;-63
2023/12/26 05:47:11;;;;;;;16.93;4.10;;;5.90;99.90;;;;;;5155402;27;20229;-62
2023/12/26 05:49:40;;;;;;;12.43;4.20;;;6.10;99.90;;;;;;5155768;27;20209;-62
2023/12/26 05:52:09;;;;;;;8.23;4.00;;;6.30;99.90;;;;;;5155467;27;20203;-61
2023/12/26 05:54:39;;;;;;;12.90;3.97;;;6.20;99.90;;;;;;5174670;27;20707;-62
2023/12/26 05:57:08;;;;;;;15.80;3.37;;;6.00;99.90;;;;;;5154757;27;20229;-62
2023/12/26 05:59:37;;;;;;;9.70;3.93;;;5.90;99.90;;;;;;5155566;27;20277;-62
2023/12/26 06:02:06;;;;;;;8.27;3.30;;;5.90;99.90;;;;;;5154211;27;20194;-63
2023/12/26 06:04:37;;;;;;;9.80;3.77;;;6.00;99.90;;;;;;5155431;27;20340;-62
2023/12/26 06:07:07;;;;;;;7.03;3.70;;;6.00;99.90;;;;;;5155284;27;20902;-62
2023/12/26 06:09:36;;;;;;;11.70;3.67;;;6.20;99.90;;;;;;5155324;27;20194;-61
2023/12/26 06:12:06;;;;;;;5.23;3.27;;;6.30;99.90;;;;;;5174302;27;20228;-62
2023/12/26 06:14:35;;;;;;;10.83;3.87;;;6.00;99.90;;;;;;5155339;27;20265;-62
2023/12/26 06:17:04;;;;;;;10.70;3.10;;;6.10;99.90;;;;;;5155187;27;20200;-62
2023/12/26 06:19:33;;;;;;;11.77;3.53;;;6.10;99.90;;;;;;5174120;27;20267;-62
2023/12/26 06:22:02;;;;;;;7.37;3.43;;;6.20;99.90;;;;;;5154551;27;20221;-62
2023/12/26 06:24:31;;;;;;;9.57;3.70;;;6.10;99.90;;;;;;5155042;27;20681;-61
2023/12/26 06:27:00;;;;;;;8.53;3.30;;;6.00;99.90;;;;;;5154949;27;20622;-62
2023/12/26 06:29:30;;;;;;;6.67;3.00;;;6.00;99.90;;;;;;5173857;27;20607;-62
2023/12/26 06:31:59;;;;;;;11.37;3.93;;;5.80;99.90;;;;;;5154963;27;20193;-63
2023/12/26 06:34:28;;;;;;;6.87;2.87;;;5.80;99.90;;;;;;5154935;27;20201;-62
2023/12/26 06:36:56;;;;;;;7.27;3.20;;;6.00;99.90;;;;;;5153953;27;20219;-62
2023/12/26 06:39:25;;;;;;;9.73;3.63;;;6.00;99.90;;;;;;5154914;27;20193;-62
2023/12/26 06:41:53;;;;;;;8.20;3.23;;;6.00;99.90;;;;;;5154574;27;20679;-62
2023/12/26 06:44:22;;;;;;;5.67;2.70;;;6.10;99.90;;;;;;5154080;27;20557;-62
2023/12/26 06:46:52;;;;;;;6.63;3.13;;;6.10;99.90;;;;;;5154257;27;20233;-62
2023/12/26 06:49:21;;;;;;;6.57;2.80;;;6.30;99.90;;;;;;5154489;27;20206;-63
2023/12/26 06:51:51;;;;;;;3.83;2.80;;;6.40;99.90;;;;;;5153810;27;20690;-63
2023/12/26 06:54:20;;;;;;;7.07;3.53;;;6.50;99.90;;;;;;5154518;27;20206;-63
2023/12/26 06:56:50;;;;;;;4.00;3.07;;;6.50;99.90;;;;;;5154302;27;20600;-62
2023/12/26 06:59:19;;;;;;;4.30;3.30;;;6.40;99.90;;;;;;5154325;27;20777;-63
2023/12/26 07:01:48;;;;;;;4.07;2.50;;;6.50;99.90;;;;;;5154465;27;20193;-63
2023/12/26 07:04:18;;;;;;;4.60;3.30;;;6.40;99.90;;;;;;5154340;27;20221;-63
2023/12/26 07:06:46;;;;;;;6.20;3.10;;;6.50;99.90;;;;;;5172825;27;20262;-62
2023/12/26 07:09:15;;;;;;;4.23;2.50;;;6.50;99.90;;;;;;5173020;27;20195;-63
2023/12/26 07:11:44;;;;;;;4.80;2.97;;;6.60;99.90;;;;;;5172866;27;20212;-63
2023/12/26 07:14:12;;;;;;;4.00;2.57;;;6.60;99.90;;;;;;5172433;27;20191;-62
2023/12/26 07:16:41;;;;;;;2.83;2.57;;;6.70;99.90;;;;;;5172579;27;20201;-62
2023/12/26 07:19:09;;;;;;;4.03;2.90;;;6.70;99.90;;;;;;5172807;27;20254;-63
2023/12/26 07:21:39;;;;;;;4.87;3.20;;;6.70;99.90;;;;;;5172561;27;20672;-63
2023/12/26 07:24:08;;;;;;;7.03;3.77;;;6.90;99.90;;;;;;5172693;27;20198;-63
2023/12/26 07:26:37;;;;;;;5.73;3.17;;;6.80;99.90;;;;;;5172399;27;20759;-63
2023/12/26 07:29:05;;;;;;;4.30;3.10;;;6.90;99.90;;;;;;5172911;27;20194;-63
2023/12/26 07:31:34;;;;;;;4.83;3.00;;;7.00;99.90;;;;;;5172712;27;20294;-63
2023/12/26 07:34:08;;;;;;;2.90;2.70;;;7.00;99.90;;;;;;5172615;27;20278;-63
2023/12/26 07:36:37;;;;;;;4.90;2.87;;;6.90;99.90;;;;;;5172484;27;20194;-63
2023/12/26 07:39:07;;;;;;;31.57;20.17;;;6.90;99.90;;;;;;5172496;27;20211;-63
2023/12/26 07:41:36;;;;;;;5.43;4.07;;;7.00;99.90;;;;;;5172401;27;20200;-63
2023/12/26 07:44:05;;;;;;;6.00;4.17;;;7.00;99.90;;;;;;5172447;27;20628;-62
2023/12/26 07:46:33;;;;;;;4.47;3.27;;;7.10;99.90;;;;;;5172038;27;20226;-62
2023/12/26 07:49:02;;;;;;;3.77;3.10;;;7.10;99.90;;;;;;5172211;27;20261;-62
2023/12/26 07:51:33;;;;;;;3.60;3.07;;;7.10;99.90;;;;;;5172070;27;20198;-62
2023/12/26 07:54:01;;;;;;;2.97;2.77;;;7.10;99.90;;;;;;5172054;27;20276;-64
2023/12/26 07:56:31;;;;;;;2.70;2.50;;;7.20;99.90;;;;;;5172323;27;20202;-62
2023/12/26 07:59:00;;;;;;;4.77;2.83;;;7.20;99.90;;;;;;5152867;27;20657;-63
2023/12/26 08:01:29;;;;;;;2.87;2.57;;;7.30;99.90;;;;;;5171849;27;20193;-63
2023/12/26 08:03:58;;;;;;;3.53;3.20;;;7.40;99.90;;;;;;5171834;27;20207;-64
2023/12/26 08:06:26;;;;;;;2.60;2.40;;;7.40;99.90;;;;;;5171631;27;20194;-63
2023/12/26 08:08:55;;;;;;;2.70;2.50;;;7.50;99.90;;;;;;5172011;27;20187;-62
2023/12/26 08:11:24;;;;;;;2.70;2.50;;;7.50;99.90;;;;;;5171795;27;20255;-63
2023/12/26 08:13:54;;;;;;;3.07;2.17;;;7.60;99.90;;;;;;5171963;27;20236;-63
2023/12/26 08:16:23;;;;;;;2.80;2.40;;;7.60;99.90;;;;;;5163206;27;20638;-62
2023/12/26 08:18:51;;;;;;;2.60;2.40;;;7.60;99.90;;;;;;5171678;27;20261;-63
2023/12/26 08:21:20;;;;;;;2.70;2.50;;;7.70;99.90;;;;;;5171426;27;20254;-63
2023/12/26 08:23:49;;;;;;;2.40;2.20;;;7.70;99.90;;;;;;5171421;27;20187;-63
2023/12/26 08:26:17;;;;;;;2.40;2.20;;;7.60;99.90;;;;;;5171427;27;20599;-65
2023/12/26 08:28:47;;;;;;;2.80;2.60;;;7.70;99.90;;;;;;5171395;27;20237;-63
2023/12/26 08:31:17;;;;;;;2.53;2.30;;;7.70;99.90;;;;;;5171707;27;20573;-63
2023/12/26 08:33:46;;;;;;;2.90;2.63;;;7.80;99.90;;;;;;5171391;27;20209;-64
2023/12/26 08:36:14;;;;;;;4.60;2.70;;;7.90;99.90;;;;;;5171264;27;20194;-62
2023/12/26 08:38:43;;;;;;;3.10;2.80;;;7.90;99.90;;;;;;5171421;27;20263;-62
2023/12/26 08:41:13;;;;;;;3.30;3.00;;;7.90;99.90;;;;;;5171485;27;21033;-63
2023/12/26 08:43:41;;;;;;;4.00;3.60;;;8.10;99.90;;;;;;5171654;27;20647;-63
2023/12/26 08:46:10;;;;;;;4.43;3.63;;;8.20;99.90;;;;;;5163962;27;20708;-63
2023/12/26 08:48:41;;;;;;;6.30;4.83;;;8.20;99.90;;;;;;5170237;27;20195;-63
2023/12/26 08:51:09;;;;;;;6.13;3.90;;;8.30;99.90;;;;;;5171478;27;20192;-63
2023/12/26 08:53:38;;;;;;;4.07;3.70;;;8.30;99.90;;;;;;5171491;27;20282;-63
2023/12/26 08:56:07;;;;;;;3.67;3.37;;;8.30;99.90;;;;;;5171317;27;20218;-63
2023/12/26 08:58:36;;;;;;;3.30;3.00;;;8.30;99.90;;;;;;5171347;27;20913;-63
2023/12/26 09:01:06;;;;;;;2.40;2.20;;;8.30;99.90;;;;;;5171479;27;20193;-63
2023/12/26 09:03:35;;;;;;;2.80;2.40;;;8.30;99.90;;;;;;5171229;27;20207;-64
2023/12/26 09:06:05;;;;;;;2.87;2.40;;;8.30;99.90;;;;;;5171470;27;20628;-63
2023/12/26 09:08:34;;;;;;;3.70;2.20;;;8.30;99.90;;;;;;5171115;27;20265;-63
2023/12/26 09:11:03;;;;;;;3.00;2.70;;;8.30;99.90;;;;;;5171177;27;20684;-63
2023/12/26 09:13:32;;;;;;;3.33;2.93;;;8.30;99.90;;;;;;5170920;27;20662;-64
2023/12/26 09:16:01;;;;;;;3.13;2.93;;;8.40;99.90;;;;;;5165172;27;20844;-63
2023/12/26 09:18:29;;;;;;;3.57;2.97;;;8.50;99.90;;;;;;5168648;27;20283;-63
2023/12/26 09:20:58;;;;;;;4.50;3.40;;;8.40;99.90;;;;;;5170986;27;20197;-63
2023/12/26 09:23:28;;;;;;;4.97;3.17;;;8.50;99.90;;;;;;5171159;27;20199;-62
2023/12/26 09:25:57;;;;;;;3.03;2.73;;;8.50;99.90;;;;;;5171334;27;20558;-63
2023/12/26 09:28:26;;;;;;;4.63;3.50;;;8.50;99.90;;;;;;5171068;27;20198;-63
2023/12/26 09:30:54;;;;;;;3.43;3.13;;;8.50;99.90;;;;;;5171110;27;20192;-62
2023/12/26 09:33:23;;;;;;;5.57;3.13;;;8.50;99.90;;;;;;5171263;27;20952;-63
2023/12/26 09:35:52;;;;;;;5.67;3.20;;;8.50;99.90;;;;;;5172006;27;20608;-62
2023/12/26 09:38:20;;;;;;;5.23;3.43;;;8.60;99.90;;;;;;5174734;27;20192;-62
2023/12/26 09:40:50;;;;;;;7.43;4.20;;;8.60;99.90;;;;;;5174595;27;20305;-62
2023/12/26 09:43:19;;;;;;;9.87;4.93;;;8.60;99.90;;;;;;5174748;27;20529;-61
2023/12/26 09:45:48;;;;;;;6.30;4.30;;;8.70;99.90;;;;;;5170594;27;20208;-63
2023/12/26 09:48:17;;;;;;;4.83;3.40;;;8.60;99.90;;;;;;5170614;27;20190;-63
2023/12/26 09:50:47;;;;;;;6.00;3.73;;;8.60;99.90;;;;;;5174484;27;20384;-63
2023/12/26 09:53:20;;;;;;;7.73;3.47;;;8.70;99.90;;;;;;5174365;27;20193;-63
2023/12/26 09:55:50;;;;;;;7.07;3.17;;;8.80;99.90;;;;;;5174438;27;20677;-62
2023/12/26 09:58:21;;;;;;;5.43;4.27;;;8.90;99.90;;;;;;5174555;27;20234;-63
2023/12/26 10:00:51;;;;;;;7.40;3.40;;;8.90;99.90;;;;;;5174370;27;20223;-63
2023/12/26 10:03:20;;;;;;;8.77;3.70;;;8.90;99.90;;;;;;5174409;27;20208;-63
2023/12/26 10:05:57;;;;;;;8.47;3.37;;;8.90;99.90;;;;;;5174278;27;20224;-62
2023/12/26 10:08:26;;;;;;;5.53;3.20;;;8.90;99.90;;;;;;5173895;27;20660;-62
2023/12/26 10:10:56;;;;;;;6.30;3.40;;;9.00;99.90;;;;;;5174272;27;20206;-63
2023/12/26 10:13:25;;;;;;;9.77;3.07;;;9.00;99.90;;;;;;5174153;27;20192;-63
2023/12/26 10:15:54;;;;;;;4.13;2.87;;;9.00;99.90;;;;;;5169561;27;20191;-63
2023/12/26 10:18:27;;;;;;;9.17;3.87;;;9.00;99.90;;;;;;5170502;27;20208;-64
2023/12/26 10:20:56;;;;;;;9.10;3.17;;;9.10;99.90;;;;;;5173890;27;20252;-63
2023/12/26 10:23:25;;;;;;;8.43;3.27;;;9.10;99.90;;;;;;5174004;27;20204;-62
2023/12/26 10:25:54;;;;;;;11.53;3.97;;;9.00;99.90;;;;;;5174057;27;20190;-64
2023/12/26 10:28:24;;;;;;;6.80;4.13;;;9.10;99.90;;;;;;5173790;27;20193;-63
2023/12/26 10:30:53;;;;;;;8.37;3.57;;;9.10;99.90;;;;;;5173727;27;20199;-63
2023/12/26 10:33:26;;;;;;;5.30;3.03;;;9.10;99.90;;;;;;5173846;27;20252;-65
2023/12/26 10:36:06;;;;;;;6.30;3.47;;;9.10;99.90;;;;;;5173507;27;20208;-65
2023/12/26 10:38:35;;;;;;;8.93;3.60;;;9.10;99.90;;;;;;5173505;27;20212;-63
2023/12/26 10:41:06;;;;;;;5.80;3.50;;;9.10;99.90;;;;;;5173528;27;20220;-62
2023/12/26 10:43:39;;;;;;;7.47;3.50;;;9.10;99.90;;;;;;5173662;27;20664;-63
2023/12/26 10:46:09;;;;;;;4.83;3.30;;;9.10;99.90;;;;;;5166574;27;20221;-62
2023/12/26 10:48:38;;;;;;;6.80;3.33;;;9.10;99.90;;;;;;5171628;27;20203;-63
2023/12/26 10:51:08;;;;;;;7.07;3.47;;;9.10;99.90;;;;;;5173269;27;20214;-62
2023/12/26 10:53:43;;;;;;;4.30;3.60;;;9.10;99.90;;;;;;5173320;27;20755;-62
2023/12/26 10:56:13;;;;;;;8.43;3.83;;;9.10;99.90;;;;;;5173206;27;20687;-63
2023/12/26 10:58:43;;;;;;;5.80;3.33;;;9.20;99.90;;;;;;5173063;27;20200;-63
2023/12/26 11:01:11;;;;;;;6.20;3.27;;;9.10;99.90;;;;;;5173058;27;20220;-62
2023/12/26 11:03:40;;;;;;;5.47;3.20;;;9.00;99.90;;;;;;5173141;27;20218;-61
2023/12/26 11:06:08;;;;;;;3.67;2.57;;;9.00;99.90;;;;;;5173048;27;20300;-62
2023/12/26 11:08:36;;;;;;;5.40;2.77;;;9.00;99.90;;;;;;5172798;27;20228;-63
2023/12/26 11:11:04;;;;;;;6.23;2.77;;;8.90;99.90;;;;;;5172935;27;20198;-63
2023/12/26 11:13:32;;;;;;;12.13;4.40;;;9.00;99.90;;;;;;5172885;27;20195;-62
2023/12/26 11:16:02;;;;;;;7.80;3.27;;;8.90;99.90;;;;;;5166965;27;20200;-63
2023/12/26 11:18:30;;;;;;;8.43;3.57;;;8.90;99.90;;;;;;5170570;27;20936;-63
2023/12/26 11:20:59;;;;;;;7.17;3.90;;;8.90;99.90;;;;;;5172792;27;20215;-63
2023/12/26 11:23:27;;;;;;;7.73;4.23;;;8.80;99.90;;;;;;5172569;27;20674;-64
2023/12/26 11:25:55;;;;;;;8.87;3.47;;;8.80;99.90;;;;;;5172735;27;20352;-62
2023/12/26 11:28:24;;;;;;;6.47;3.30;;;8.70;99.90;;;;;;5172544;27;20205;-63
2023/12/26 11:30:54;;;;;;;7.13;3.77;;;8.70;99.90;;;;;;5172654;27;20200;-63
2023/12/26 11:33:26;;;;;;;7.23;3.43;;;8.80;99.90;;;;;;5172476;27;20201;-63
2023/12/26 11:35:53;;;;;;;5.90;3.03;;;8.70;99.90;;;;;;5172440;27;20741;-63
2023/12/26 11:38:21;;;;;;;9.37;3.43;;;8.70;99.90;;;;;;5172365;27;20215;-62
2023/12/26 11:40:50;;;;;;;5.80;3.20;;;8.70;99.90;;;;;;5171967;27;20307;-63
2023/12/26 11:43:17;;;;;;;8.73;3.57;;;8.70;99.90;;;;;;5172581;27;20205;-62
2023/12/26 11:45:45;;;;;;;7.20;3.27;;;8.60;99.90;;;;;;5168795;27;20190;-63
2023/12/26 11:48:14;;;;;;;6.87;3.30;;;8.60;99.90;;;;;;5167585;27;20228;-63
2023/12/26 11:50:43;;;;;;;6.33;3.30;;;8.60;99.90;;;;;;5172210;27;20196;-63
2023/12/26 11:53:13;;;;;;;7.40;3.17;;;8.60;99.90;;;;;;5172059;27;20193;-62
2023/12/26 11:55:41;;;;;;;5.83;3.40;;;8.50;99.90;;;;;;5172033;27;20196;-63
2023/12/26 11:58:09;;;;;;;4.87;3.13;;;8.50;99.90;;;;;;5172104;27;20199;-62
2023/12/26 12:00:37;;;;;;;3.23;2.70;;;8.40;99.90;;;;;;5171931;27;20223;-63
2023/12/26 12:03:05;;;;;;;4.43;2.80;;;8.40;99.90;;;;;;5172114;27;20205;-62
2023/12/26 12:05:33;;;;;;;8.37;3.07;;;8.40;99.90;;;;;;5171989;27;20279;-63
2023/12/26 12:08:13;;;;;;;9.37;4.00;;;8.30;99.90;;;;;;5171768;27;20553;-63
2023/12/26 12:11:07;;;;;;;8.47;3.97;;;8.30;99.90;;;;;;5171499;27;20200;-62
2023/12/26 12:13:36;;;;;;;7.73;3.57;;;8.30;99.90;;;;;;5171740;27;20210;-63
2023/12/26 12:16:03;;;;;;;24.00;12.33;;;8.30;99.90;;;;;;5171726;27;20202;-62
2023/12/26 12:18:31;;;;;;;5.57;3.23;;;8.30;99.90;;;;;;5171665;27;20200;-63
2023/12/26 12:21:00;;;;;;;5.33;3.03;;;8.30;99.90;;;;;;5171454;27;20210;-63
2023/12/26 12:23:29;;;;;;;4.77;2.50;;;8.20;99.90;;;;;;5171567;27;20192;-62
2023/12/26 12:26:06;;;;;;;4.83;2.60;;;8.10;99.90;;;;;;5172000;27;20557;-62
2023/12/26 12:28:51;;;;;;;7.17;2.33;;;8.20;99.90;;;;;;5171963;27;20190;-63
2023/12/26 12:31:25;;;;;;;7.47;2.80;;;8.10;99.90;;;;;;5171500;27;20287;-63
2023/12/26 12:34:11;;;;;;;6.63;2.73;;;8.00;99.90;;;;;;5171671;27;20285;-63
2023/12/26 12:36:41;;;;;;;10.03;3.20;;;8.10;99.90;;;;;;5171608;27;20218;-63
2023/12/26 12:39:13;;;;;;;7.43;3.23;;;8.00;99.90;;;;;;5171479;27;20190;-62
2023/12/26 12:41:42;;;;;;;8.30;3.23;;;8.10;99.90;;;;;;5171537;27;20751;-63
2023/12/26 12:44:10;;;;;;;5.37;2.67;;;8.10;99.90;;;;;;5171603;27;20196;-63
2023/12/26 12:46:45;;;;;;;7.73;3.73;;;8.10;99.90;;;;;;5171286;27;20248;-63
2023/12/26 12:49:13;;;;;;;5.13;3.37;;;8.10;99.90;;;;;;5171410;27;20280;-63
2023/12/26 12:51:42;;;;;;;4.67;2.87;;;8.20;99.90;;;;;;5171528;27;20257;-63
2023/12/26 12:54:13;;;;;;;6.97;3.03;;;8.20;99.90;;;;;;5171086;27;20604;-63
2023/12/26 12:56:40;;;;;;;12.17;3.50;;;8.10;99.90;;;;;;5171467;27;20196;-64
2023/12/26 12:59:08;;;;;;;12.83;4.03;;;8.20;99.90;;;;;;5171501;27;20188;-64
2023/12/26 13:01:36;;;;;;;3.83;3.47;;;8.20;99.90;;;;;;5171517;27;20224;-63
2023/12/26 13:04:04;;;;;;;6.33;3.27;;;8.20;99.90;;;;;;5171561;27;20283;-63